sensor_id;sensor_type;location;lat;lon;timestamp;pressure;altitude;pressure_sealevel;temperature;humidity
64343;BME280;50675;53.530;-6.312;2023-08-17T06:40:14;101297.06;;;20.45;61.14
64343;BME280;50675;53.530;-6.312;2023-08-17T06:42:39;101305.59;;;20.94;61.43
64343;BME280;50675;53.530;-6.312;2023-08-17T06:45:06;101287.03;;;21.19;61.18
64343;BME280;50675;53.530;-6.312;2023-08-17T06:47:32;101300.69;;;21.51;61.15
64343;BME280;50675;53.530;-6.312;2023-08-17T06:49:58;101305.16;;;21.88;61.33
64343;BME280;50675;53.530;-6.312;2023-08-17T06:52:26;101282.75;;;21.95;61.33
64343;BME280;50675;53.530;-6.312;2023-08-17T06:54:52;101287.38;;;22.21;61.19
64343;BME280;50675;53.530;-6.312;2023-08-17T06:57:18;101304.91;;;22.48;61.14
64343;BME280;50675;53.530;-6.312;2023-08-17T06:59:47;101307.16;;;22.68;61.10
64343;BME280;50675;53.530;-6.312;2023-08-17T07:02:13;101308.28;;;22.81;61.21
64343;BME280;50675;53.530;-6.312;2023-08-17T07:04:38;101303.63;;;22.90;61.13
64343;BME280;50675;53.530;-6.312;2023-08-17T07:07:06;101284.13;;;22.86;61.00
64343;BME280;50675;53.530;-6.312;2023-08-17T07:09:32;101285.34;;;22.94;60.92
64343;BME280;50675;53.530;-6.312;2023-08-17T07:11:58;101273.56;;;23.10;60.75
64343;BME280;50675;53.530;-6.312;2023-08-17T07:14:24;101261.13;;;23.13;60.91
64343;BME280;50675;53.530;-6.312;2023-08-17T07:16:50;101276.34;;;23.10;60.79
64343;BME280;50675;53.530;-6.312;2023-08-17T07:19:16;101268.03;;;23.02;60.65
64343;BME280;50675;53.530;-6.312;2023-08-17T07:21:42;101279.06;;;23.02;60.53
64343;BME280;50675;53.530;-6.312;2023-08-17T07:24:12;101269.28;;;22.96;60.44
64343;BME280;50675;53.530;-6.312;2023-08-17T07:26:38;101273.66;;;22.97;60.75
64343;BME280;50675;53.530;-6.312;2023-08-17T07:29:04;101265.56;;;23.00;60.35
64343;BME280;50675;53.530;-6.312;2023-08-17T07:31:30;101272.00;;;23.18;60.37
64343;BME280;50675;53.530;-6.312;2023-08-17T07:33:56;101266.84;;;23.25;60.19
64343;BME280;50675;53.530;-6.312;2023-08-17T07:36:22;101246.91;;;23.28;60.33
64343;BME280;50675;53.530;-6.312;2023-08-17T07:38:47;101266.63;;;23.52;60.07
64343;BME280;50675;53.530;-6.312;2023-08-17T07:41:13;101256.09;;;23.54;59.94
64343;BME280;50675;53.530;-6.312;2023-08-17T07:43:39;101274.91;;;23.52;60.02
64343;BME280;50675;53.530;-6.312;2023-08-17T07:46:04;101277.50;;;23.49;59.89
64343;BME280;50675;53.530;-6.312;2023-08-17T07:48:30;101266.22;;;23.28;60.06
64343;BME280;50675;53.530;-6.312;2023-08-17T07:50:59;101267.94;;;23.16;59.90
64343;BME280;50675;53.530;-6.312;2023-08-17T07:53:25;101265.00;;;23.12;59.79
64343;BME280;50675;53.530;-6.312;2023-08-17T07:55:51;101260.88;;;23.01;59.91
64343;BME280;50675;53.530;-6.312;2023-08-17T07:58:16;101277.75;;;22.77;59.79
64343;BME280;50675;53.530;-6.312;2023-08-17T08:00:42;101270.19;;;22.60;59.82
64343;BME280;50675;53.530;-6.312;2023-08-17T08:03:08;101263.22;;;22.63;59.45
64343;BME280;50675;53.530;-6.312;2023-08-17T08:05:34;101242.31;;;22.62;59.63
64343;BME280;50675;53.530;-6.312;2023-08-17T08:07:59;101241.03;;;22.59;59.88
64343;BME280;50675;53.530;-6.312;2023-08-17T08:10:26;101257.41;;;22.64;59.80
64343;BME280;50675;53.530;-6.312;2023-08-17T08:12:52;101250.28;;;22.63;59.73
64343;BME280;50675;53.530;-6.312;2023-08-17T08:15:17;101267.63;;;22.64;59.82
64343;BME280;50675;53.530;-6.312;2023-08-17T08:17:43;101236.97;;;22.57;59.99
64343;BME280;50675;53.530;-6.312;2023-08-17T08:20:09;101253.75;;;22.47;59.76
64343;BME280;50675;53.530;-6.312;2023-08-17T08:22:35;101252.41;;;22.44;59.84
64343;BME280;50675;53.530;-6.312;2023-08-17T08:25:00;101237.59;;;22.32;60.01
64343;BME280;50675;53.530;-6.312;2023-08-17T08:27:26;101254.22;;;22.49;59.97
64343;BME280;50675;53.530;-6.312;2023-08-17T08:29:52;101240.53;;;22.35;59.95
64343;BME280;50675;53.530;-6.312;2023-08-17T08:32:24;101239.66;;;22.26;59.97
64343;BME280;50675;53.530;-6.312;2023-08-17T08:34:53;101236.94;;;22.35;59.97
64343;BME280;50675;53.530;-6.312;2023-08-17T08:37:18;101223.44;;;22.24;60.33
64343;BME280;50675;53.530;-6.312;2023-08-17T08:39:51;101240.34;;;22.32;60.02
64343;BME280;50675;53.530;-6.312;2023-08-17T08:42:18;101233.59;;;22.38;60.14
64343;BME280;50675;53.530;-6.312;2023-08-17T08:44:44;101231.03;;;22.41;60.03
64343;BME280;50675;53.530;-6.312;2023-08-17T08:47:11;101233.38;;;22.34;59.93
64343;BME280;50675;53.530;-6.312;2023-08-17T08:49:48;101230.03;;;22.37;59.75
64343;BME280;50675;53.530;-6.312;2023-08-17T08:52:19;101236.63;;;22.58;59.73
64343;BME280;50675;53.530;-6.312;2023-08-17T08:54:50;101218.31;;;22.32;59.82
64343;BME280;50675;53.530;-6.312;2023-08-17T08:57:17;101233.16;;;22.22;59.75
64343;BME280;50675;53.530;-6.312;2023-08-17T08:59:45;101226.06;;;22.30;59.72
64343;BME280;50675;53.530;-6.312;2023-08-17T09:02:15;101224.31;;;22.34;59.66
64343;BME280;50675;53.530;-6.312;2023-08-17T09:04:43;101225.34;;;22.38;59.73
64343;BME280;50675;53.530;-6.312;2023-08-17T09:07:13;101231.50;;;22.43;59.72
64343;BME280;50675;53.530;-6.312;2023-08-17T09:09:40;101227.28;;;22.37;59.62
64343;BME280;50675;53.530;-6.312;2023-08-17T09:12:09;101246.34;;;22.56;59.63
64343;BME280;50675;53.530;-6.312;2023-08-17T09:14:35;101238.94;;;22.65;59.71
64343;BME280;50675;53.530;-6.312;2023-08-17T09:17:03;101249.59;;;22.58;59.43
64343;BME280;50675;53.530;-6.312;2023-08-17T09:19:34;101251.16;;;22.50;59.26
64343;BME280;50675;53.530;-6.312;2023-08-17T09:22:00;101242.53;;;22.65;59.43
64343;BME280;50675;53.530;-6.312;2023-08-17T09:24:35;101261.41;;;22.58;59.10
64343;BME280;50675;53.530;-6.312;2023-08-17T09:27:04;101240.63;;;22.52;59.34
64343;BME280;50675;53.530;-6.312;2023-08-17T09:29:31;101244.91;;;22.58;59.05
64343;BME280;50675;53.530;-6.312;2023-08-17T09:32:06;101252.34;;;22.58;58.92
64343;BME280;50675;53.530;-6.312;2023-08-17T09:34:32;101247.28;;;22.51;59.10
64343;BME280;50675;53.530;-6.312;2023-08-17T09:37:05;101236.53;;;22.41;58.91
64343;BME280;50675;53.530;-6.312;2023-08-17T09:39:31;101242.66;;;22.60;58.69
64343;BME280;50675;53.530;-6.312;2023-08-17T09:41:57;101211.50;;;22.51;58.83
64343;BME280;50675;53.530;-6.312;2023-08-17T09:44:24;101217.34;;;22.58;58.68
64343;BME280;50675;53.530;-6.312;2023-08-17T09:46:50;101221.88;;;22.54;58.55
64343;BME280;50675;53.530;-6.312;2023-08-17T09:49:17;101210.34;;;22.52;58.39
64343;BME280;50675;53.530;-6.312;2023-08-17T09:51:44;101210.78;;;22.68;58.47
64343;BME280;50675;53.530;-6.312;2023-08-17T09:54:21;101217.63;;;22.71;58.16
64343;BME280;50675;53.530;-6.312;2023-08-17T09:56:50;101202.72;;;22.72;58.22
64343;BME280;50675;53.530;-6.312;2023-08-17T09:59:16;101205.53;;;22.80;58.15
64343;BME280;50675;53.530;-6.312;2023-08-17T10:01:42;101217.81;;;22.74;58.04
64343;BME280;50675;53.530;-6.312;2023-08-17T10:04:09;101198.34;;;22.71;58.04
64343;BME280;50675;53.530;-6.312;2023-08-17T10:06:39;101205.56;;;22.89;58.02
64343;BME280;50675;53.530;-6.312;2023-08-17T10:09:06;101209.84;;;23.03;57.85
64343;BME280;50675;53.530;-6.312;2023-08-17T10:11:36;101205.31;;;23.07;57.76
64343;BME280;50675;53.530;-6.312;2023-08-17T10:14:09;101212.31;;;23.14;57.85
64343;BME280;50675;53.530;-6.312;2023-08-17T10:16:45;101209.78;;;23.34;57.56
64343;BME280;50675;53.530;-6.312;2023-08-17T10:19:24;101192.78;;;23.41;57.45
64343;BME280;50675;53.530;-6.312;2023-08-17T10:22:05;101208.63;;;23.27;57.75
64343;BME280;50675;53.530;-6.312;2023-08-17T10:24:33;101193.13;;;23.48;57.21
64343;BME280;50675;53.530;-6.312;2023-08-17T10:27:03;101194.78;;;23.49;57.23
64343;BME280;50675;53.530;-6.312;2023-08-17T10:29:30;101190.88;;;23.59;56.92
64343;BME280;50675;53.530;-6.312;2023-08-17T10:31:57;101177.09;;;23.59;56.77
64343;BME280;50675;53.530;-6.312;2023-08-17T10:34:24;101174.34;;;23.59;56.73
64343;BME280;50675;53.530;-6.312;2023-08-17T10:36:51;101180.84;;;23.63;56.70
64343;BME280;50675;53.530;-6.312;2023-08-17T10:39:21;101181.19;;;23.70;56.35
64343;BME280;50675;53.530;-6.312;2023-08-17T10:41:48;101163.81;;;23.69;56.13
64343;BME280;50675;53.530;-6.312;2023-08-17T10:44:14;101172.75;;;23.83;56.14
64343;BME280;50675;53.530;-6.312;2023-08-17T10:46:40;101156.19;;;23.83;56.11
64343;BME280;50675;53.530;-6.312;2023-08-17T10:49:08;101165.28;;;23.75;55.97
64343;BME280;50675;53.530;-6.312;2023-08-17T10:52:03;101156.84;;;23.89;55.87
64343;BME280;50675;53.530;-6.312;2023-08-17T10:54:42;101148.88;;;23.96;55.38
64343;BME280;50675;53.530;-6.312;2023-08-17T10:57:27;101164.63;;;24.13;55.31
64343;BME280;50675;53.530;-6.312;2023-08-17T11:00:07;101168.19;;;24.13;54.97
64343;BME280;50675;53.530;-6.312;2023-08-17T11:02:33;101159.75;;;24.01;55.14
64343;BME280;50675;53.530;-6.312;2023-08-17T11:05:03;101158.13;;;23.91;55.08
64343;BME280;50675;53.530;-6.312;2023-08-17T11:07:43;101163.16;;;23.81;54.60
64343;BME280;50675;53.530;-6.312;2023-08-17T11:12:44;101162.19;;;23.94;54.41
64343;BME280;50675;53.530;-6.312;2023-08-17T11:15:10;101161.38;;;23.76;54.17
64343;BME280;50675;53.530;-6.312;2023-08-17T11:17:36;101163.19;;;23.89;54.24
64343;BME280;50675;53.530;-6.312;2023-08-17T11:20:04;101159.09;;;23.87;54.00
64343;BME280;50675;53.530;-6.312;2023-08-17T11:22:30;101154.88;;;23.72;53.91
64343;BME280;50675;53.530;-6.312;2023-08-17T11:24:55;101145.81;;;23.80;54.14
64343;BME280;50675;53.530;-6.312;2023-08-17T11:27:21;101167.22;;;23.83;53.83
64343;BME280;50675;53.530;-6.312;2023-08-17T11:29:47;101152.47;;;23.88;53.75
64343;BME280;50675;53.530;-6.312;2023-08-17T11:32:16;101160.41;;;23.98;53.80
64343;BME280;50675;53.530;-6.312;2023-08-17T11:34:43;101160.72;;;23.88;53.92
64343;BME280;50675;53.530;-6.312;2023-08-17T11:37:11;101153.94;;;23.85;53.62
64343;BME280;50675;53.530;-6.312;2023-08-17T11:39:37;101162.84;;;23.82;53.55
64343;BME280;50675;53.530;-6.312;2023-08-17T11:42:04;101167.69;;;23.77;53.75
64343;BME280;50675;53.530;-6.312;2023-08-17T11:44:33;101151.66;;;23.70;53.70
64343;BME280;50675;53.530;-6.312;2023-08-17T11:46:59;101161.88;;;23.70;53.31
64343;BME280;50675;53.530;-6.312;2023-08-17T11:49:25;101161.22;;;23.73;53.67
64343;BME280;50675;53.530;-6.312;2023-08-17T11:51:54;101146.59;;;23.81;53.56
64343;BME280;50675;53.530;-6.312;2023-08-17T11:54:19;101151.31;;;23.46;53.43
64343;BME280;50675;53.530;-6.312;2023-08-17T11:56:47;101143.69;;;23.51;53.35
64343;BME280;50675;53.530;-6.312;2023-08-17T11:59:13;101162.03;;;23.73;53.51
64343;BME280;50675;53.530;-6.312;2023-08-17T12:01:40;101153.09;;;23.68;52.94
64343;BME280;50675;53.530;-6.312;2023-08-17T12:04:06;101150.50;;;23.63;53.05
64343;BME280;50675;53.530;-6.312;2023-08-17T12:06:42;101158.75;;;23.54;53.15
64343;BME280;50675;53.530;-6.312;2023-08-17T12:09:08;101154.06;;;23.54;53.01
64343;BME280;50675;53.530;-6.312;2023-08-17T12:11:34;101137.53;;;23.54;52.86
64343;BME280;50675;53.530;-6.312;2023-08-17T12:14:08;101136.00;;;23.40;52.73
64343;BME280;50675;53.530;-6.312;2023-08-17T12:16:45;101130.50;;;23.31;53.05
64343;BME280;50675;53.530;-6.312;2023-08-17T12:19:12;101127.56;;;23.36;52.71
64343;BME280;50675;53.530;-6.312;2023-08-17T12:21:40;101146.72;;;23.33;52.61
64343;BME280;50675;53.530;-6.312;2023-08-17T12:24:08;101111.66;;;23.16;52.89
64343;BME280;50675;53.530;-6.312;2023-08-17T12:26:34;101127.38;;;23.24;52.82
64343;BME280;50675;53.530;-6.312;2023-08-17T12:29:04;101117.53;;;23.32;52.74
64343;BME280;50675;53.530;-6.312;2023-08-17T12:31:31;101135.88;;;23.45;52.95
64343;BME280;50675;53.530;-6.312;2023-08-17T12:33:59;101132.81;;;23.55;53.13
64343;BME280;50675;53.530;-6.312;2023-08-17T12:36:27;101130.66;;;23.43;53.03
64343;BME280;50675;53.530;-6.312;2023-08-17T12:38:56;101111.88;;;23.45;52.84
64343;BME280;50675;53.530;-6.312;2023-08-17T12:41:27;101108.16;;;23.50;53.03
64343;BME280;50675;53.530;-6.312;2023-08-17T12:48:45;101117.56;;;23.49;52.77
64343;BME280;50675;53.530;-6.312;2023-08-17T12:51:29;101110.75;;;23.46;53.00
64343;BME280;50675;53.530;-6.312;2023-08-17T12:57:58;101115.06;;;23.13;52.94
64343;BME280;50675;53.530;-6.312;2023-08-17T13:00:39;101097.03;;;23.07;53.27
64343;BME280;50675;53.530;-6.312;2023-08-17T13:13:43;101102.38;;;23.03;52.90
64343;BME280;50675;53.530;-6.312;2023-08-17T13:16:43;101108.34;;;22.97;52.80
64343;BME280;50675;53.530;-6.312;2023-08-17T13:20:01;101125.59;;;23.20;52.92
64343;BME280;50675;53.530;-6.312;2023-08-17T13:23:12;101127.19;;;23.03;53.14
64343;BME280;50675;53.530;-6.312;2023-08-17T13:26:37;101115.50;;;22.98;53.10
64343;BME280;50675;53.530;-6.312;2023-08-17T13:29:38;101092.94;;;22.87;53.18
64343;BME280;50675;53.530;-6.312;2023-08-17T13:33:11;101094.28;;;22.98;53.28
64343;BME280;50675;53.530;-6.312;2023-08-17T13:35:52;101086.31;;;22.97;52.89
64343;BME280;50675;53.530;-6.312;2023-08-17T13:38:47;101106.94;;;23.17;52.96
64343;BME280;50675;53.530;-6.312;2023-08-17T13:45:42;101095.56;;;23.01;53.20
64343;BME280;50675;53.530;-6.312;2023-08-17T13:49:22;101091.53;;;23.07;53.30
64343;BME280;50675;53.530;-6.312;2023-08-17T13:55:42;101085.88;;;23.12;53.02
64343;BME280;50675;53.530;-6.312;2023-08-17T13:58:31;101081.66;;;23.15;53.27
64343;BME280;50675;53.530;-6.312;2023-08-17T14:01:15;101085.25;;;23.41;53.09
64343;BME280;50675;53.530;-6.312;2023-08-17T14:03:53;101077.78;;;23.33;53.20
64343;BME280;50675;53.530;-6.312;2023-08-17T14:06:20;101072.44;;;23.36;53.03
64343;BME280;50675;53.530;-6.312;2023-08-17T14:08:46;101077.97;;;23.62;53.11
64343;BME280;50675;53.530;-6.312;2023-08-17T14:11:12;101062.25;;;23.63;53.04
64343;BME280;50675;53.530;-6.312;2023-08-17T14:13:38;101073.44;;;23.66;53.19
64343;BME280;50675;53.530;-6.312;2023-08-17T14:16:05;101069.06;;;23.65;53.39
64343;BME280;50675;53.530;-6.312;2023-08-17T14:18:31;101065.97;;;23.67;53.08
64343;BME280;50675;53.530;-6.312;2023-08-17T14:20:57;101053.31;;;23.74;52.97
64343;BME280;50675;53.530;-6.312;2023-08-17T14:23:24;101060.81;;;23.57;53.06
64343;BME280;50675;53.530;-6.312;2023-08-17T14:25:50;101057.34;;;23.77;53.12
64343;BME280;50675;53.530;-6.312;2023-08-17T14:28:18;101058.03;;;23.57;53.17
64343;BME280;50675;53.530;-6.312;2023-08-17T14:34:20;101030.63;;;23.51;52.83
64343;BME280;50675;53.530;-6.312;2023-08-17T14:36:52;101039.34;;;23.36;52.60
64343;BME280;50675;53.530;-6.312;2023-08-17T14:39:23;101021.38;;;23.47;52.38
64343;BME280;50675;53.530;-6.312;2023-08-17T14:42:06;101037.56;;;23.58;52.89
64343;BME280;50675;53.530;-6.312;2023-08-17T14:45:50;101007.25;;;23.66;52.71
64343;BME280;50675;53.530;-6.312;2023-08-17T14:48:37;101003.97;;;23.73;52.74
64343;BME280;50675;53.530;-6.312;2023-08-17T14:52:04;101009.81;;;23.80;52.66
64343;BME280;50675;53.530;-6.312;2023-08-17T14:55:23;101027.97;;;23.89;53.00
64343;BME280;50675;53.530;-6.312;2023-08-17T14:58:21;101012.06;;;23.86;52.45
64343;BME280;50675;53.530;-6.312;2023-08-17T15:01:07;101004.59;;;23.87;52.97
64343;BME280;50675;53.530;-6.312;2023-08-17T15:03:43;101011.25;;;23.86;52.48
64343;BME280;50675;53.530;-6.312;2023-08-17T15:06:17;101034.91;;;24.04;52.64
64343;BME280;50675;53.530;-6.312;2023-08-17T15:08:51;101037.16;;;24.11;52.44
64343;BME280;50675;53.530;-6.312;2023-08-17T15:11:38;101022.75;;;23.96;52.46
64343;BME280;50675;53.530;-6.312;2023-08-17T15:14:34;101020.63;;;24.02;52.47
64343;BME280;50675;53.530;-6.312;2023-08-17T15:17:09;101028.06;;;24.10;52.22
64343;BME280;50675;53.530;-6.312;2023-08-17T15:19:42;101016.25;;;24.01;52.73
64343;BME280;50675;53.530;-6.312;2023-08-17T15:22:13;100999.22;;;23.99;52.46
64343;BME280;50675;53.530;-6.312;2023-08-17T15:24:48;101018.78;;;24.15;52.40
64343;BME280;50675;53.530;-6.312;2023-08-17T15:27:28;100991.25;;;23.97;52.29
64343;BME280;50675;53.530;-6.312;2023-08-17T15:30:08;100977.63;;;23.92;52.23
64343;BME280;50675;53.530;-6.312;2023-08-17T15:32:54;101014.09;;;24.15;52.27
64343;BME280;50675;53.530;-6.312;2023-08-17T15:35:23;101012.84;;;24.04;52.04
64343;BME280;50675;53.530;-6.312;2023-08-17T15:37:49;101005.03;;;24.06;52.27
64343;BME280;50675;53.530;-6.312;2023-08-17T15:40:18;101001.28;;;24.11;51.90
64343;BME280;50675;53.530;-6.312;2023-08-17T15:42:44;100986.91;;;23.88;52.04
64343;BME280;50675;53.530;-6.312;2023-08-17T15:45:10;100983.38;;;23.79;52.06
64343;BME280;50675;53.530;-6.312;2023-08-17T15:47:35;100987.91;;;23.83;52.12
64343;BME280;50675;53.530;-6.312;2023-08-17T15:50:01;100997.31;;;23.82;51.94
64343;BME280;50675;53.530;-6.312;2023-08-17T15:52:27;100974.03;;;23.45;52.07
64343;BME280;50675;53.530;-6.312;2023-08-17T15:54:53;100970.59;;;23.40;51.94
64343;BME280;50675;53.530;-6.312;2023-08-17T15:57:25;100979.34;;;23.25;52.10
64343;BME280;50675;53.530;-6.312;2023-08-17T15:59:50;100985.22;;;23.23;51.80
64343;BME280;50675;53.530;-6.312;2023-08-17T16:02:18;100973.03;;;23.24;52.22
64343;BME280;50675;53.530;-6.312;2023-08-17T16:04:51;100979.69;;;23.06;51.91
64343;BME280;50675;53.530;-6.312;2023-08-17T16:07:27;100958.59;;;23.10;52.02
64343;BME280;50675;53.530;-6.312;2023-08-17T16:09:53;100955.06;;;23.18;51.90
64343;BME280;50675;53.530;-6.312;2023-08-17T16:12:18;100950.03;;;23.11;52.24
64343;BME280;50675;53.530;-6.312;2023-08-17T16:14:52;100964.13;;;23.19;52.32
64343;BME280;50675;53.530;-6.312;2023-08-17T16:17:18;100938.03;;;22.99;52.19
64343;BME280;50675;53.530;-6.312;2023-08-17T16:19:43;100949.19;;;23.20;52.26
64343;BME280;50675;53.530;-6.312;2023-08-17T16:22:09;100948.56;;;23.23;52.54
64343;BME280;50675;53.530;-6.312;2023-08-17T16:24:35;100941.88;;;23.24;52.55
64343;BME280;50675;53.530;-6.312;2023-08-17T16:30:32;100925.03;;;23.34;52.68
64343;BME280;50675;53.530;-6.312;2023-08-17T16:33:01;100929.09;;;23.36;52.56
64343;BME280;50675;53.530;-6.312;2023-08-17T16:35:26;100923.59;;;23.45;52.36
64343;BME280;50675;53.530;-6.312;2023-08-17T16:37:52;100911.41;;;23.37;52.72
64343;BME280;50675;53.530;-6.312;2023-08-17T16:40:18;100924.69;;;23.52;52.75
64343;BME280;50675;53.530;-6.312;2023-08-17T16:42:44;100921.78;;;23.49;52.75
64343;BME280;50675;53.530;-6.312;2023-08-17T16:45:12;100913.03;;;23.47;52.90
64343;BME280;50675;53.530;-6.312;2023-08-17T16:47:41;100913.66;;;23.44;52.48
64343;BME280;50675;53.530;-6.312;2023-08-17T16:50:08;100930.66;;;23.63;52.48
64343;BME280;50675;53.530;-6.312;2023-08-17T16:52:37;100921.31;;;23.47;52.39
64343;BME280;50675;53.530;-6.312;2023-08-17T16:55:04;100910.09;;;23.43;52.55
64343;BME280;50675;53.530;-6.312;2023-08-17T16:57:32;100925.50;;;23.62;52.44
64343;BME280;50675;53.530;-6.312;2023-08-17T16:59:59;100901.19;;;23.55;52.91
64343;BME280;50675;53.530;-6.312;2023-08-17T17:02:25;100893.75;;;23.47;52.50
64343;BME280;50675;53.530;-6.312;2023-08-17T17:04:51;100910.13;;;23.52;52.67
64343;BME280;50675;53.530;-6.312;2023-08-17T17:07:17;100913.34;;;23.54;52.62
64343;BME280;50675;53.530;-6.312;2023-08-17T17:09:43;100893.25;;;23.45;52.36
64343;BME280;50675;53.530;-6.312;2023-08-17T17:12:10;100886.91;;;23.36;52.75
64343;BME280;50675;53.530;-6.312;2023-08-17T17:14:37;100900.72;;;23.44;52.66
64343;BME280;50675;53.530;-6.312;2023-08-17T17:17:03;100914.00;;;23.42;52.53
64343;BME280;50675;53.530;-6.312;2023-08-17T17:19:29;100909.63;;;23.41;52.50
64343;BME280;50675;53.530;-6.312;2023-08-17T17:21:54;100908.47;;;23.34;52.70
64343;BME280;50675;53.530;-6.312;2023-08-17T17:24:20;100905.72;;;23.34;52.50
64343;BME280;50675;53.530;-6.312;2023-08-17T17:26:46;100902.97;;;23.34;52.72
64343;BME280;50675;53.530;-6.312;2023-08-17T17:29:12;100906.41;;;23.22;52.66
64343;BME280;50675;53.530;-6.312;2023-08-17T17:31:37;100911.75;;;23.10;52.63
64343;BME280;50675;53.530;-6.312;2023-08-17T17:34:03;100907.09;;;22.93;52.67
64343;BME280;50675;53.530;-6.312;2023-08-17T17:36:33;100900.13;;;22.79;52.95
64343;BME280;50675;53.530;-6.312;2023-08-17T17:38:59;100884.03;;;22.55;53.12
64343;BME280;50675;53.530;-6.312;2023-08-17T17:41:25;100882.41;;;22.54;52.89
64343;BME280;50675;53.530;-6.312;2023-08-17T17:43:50;100884.34;;;22.53;52.95
64343;BME280;50675;53.530;-6.312;2023-08-17T17:46:16;100898.44;;;22.52;53.15
64343;BME280;50675;53.530;-6.312;2023-08-17T17:48:44;100889.38;;;22.60;53.31
64343;BME280;50675;53.530;-6.312;2023-08-17T17:51:10;100877.56;;;22.51;53.25
64343;BME280;50675;53.530;-6.312;2023-08-17T17:53:36;100878.38;;;22.51;53.65
64343;BME280;50675;53.530;-6.312;2023-08-17T17:56:02;100892.44;;;22.50;53.28
64343;BME280;50675;53.530;-6.312;2023-08-17T17:58:28;100885.00;;;22.59;53.54
64343;BME280;50675;53.530;-6.312;2023-08-17T18:00:54;100876.28;;;22.57;53.63
64343;BME280;50675;53.530;-6.312;2023-08-17T18:03:20;100879.97;;;22.52;53.64
64343;BME280;50675;53.530;-6.312;2023-08-17T18:05:46;100880.97;;;22.56;53.80
64343;BME280;50675;53.530;-6.312;2023-08-17T18:08:13;100862.47;;;22.40;53.87
64343;BME280;50675;53.530;-6.312;2023-08-17T18:10:42;100869.75;;;22.36;53.99
64343;BME280;50675;53.530;-6.312;2023-08-17T18:13:08;100875.47;;;22.56;53.91
64343;BME280;50675;53.530;-6.312;2023-08-17T18:15:37;100877.22;;;22.44;53.88
64343;BME280;50675;53.530;-6.312;2023-08-17T18:18:04;100876.91;;;22.54;54.08
64343;BME280;50675;53.530;-6.312;2023-08-17T18:20:30;100856.66;;;22.50;54.19
64343;BME280;50675;53.530;-6.312;2023-08-17T18:23:08;100844.38;;;22.47;54.02
64343;BME280;50675;53.530;-6.312;2023-08-17T18:26:31;100857.47;;;22.50;54.06
64343;BME280;50675;53.530;-6.312;2023-08-17T18:29:25;100858.44;;;22.46;54.19
64343;BME280;50675;53.530;-6.312;2023-08-17T18:32:52;100852.59;;;22.30;54.14
64343;BME280;50675;53.530;-6.312;2023-08-17T18:35:29;100861.34;;;22.32;54.47
64343;BME280;50675;53.530;-6.312;2023-08-17T18:37:55;100847.06;;;22.21;54.47
64343;BME280;50675;53.530;-6.312;2023-08-17T18:40:21;100853.25;;;22.27;54.38
64343;BME280;50675;53.530;-6.312;2023-08-17T18:42:48;100845.94;;;22.14;54.32
64343;BME280;50675;53.530;-6.312;2023-08-17T18:45:16;100849.81;;;22.13;54.48
64343;BME280;50675;53.530;-6.312;2023-08-17T18:47:45;100843.34;;;22.09;54.67
64343;BME280;50675;53.530;-6.312;2023-08-17T18:50:13;100843.19;;;22.14;54.78
64343;BME280;50675;53.530;-6.312;2023-08-17T18:52:39;100840.59;;;22.09;54.80
64343;BME280;50675;53.530;-6.312;2023-08-17T18:55:05;100841.03;;;22.02;55.15
64343;BME280;50675;53.530;-6.312;2023-08-17T18:57:37;100851.72;;;22.04;54.83
64343;BME280;50675;53.530;-6.312;2023-08-17T19:00:04;100831.81;;;21.98;55.17
64343;BME280;50675;53.530;-6.312;2023-08-17T19:02:31;100843.81;;;22.11;55.16
64343;BME280;50675;53.530;-6.312;2023-08-17T19:04:57;100862.09;;;22.15;55.14
64343;BME280;50675;53.530;-6.312;2023-08-17T19:07:25;100860.81;;;22.21;54.86
64343;BME280;50675;53.530;-6.312;2023-08-17T19:09:52;100841.72;;;22.08;55.27
64343;BME280;50675;53.530;-6.312;2023-08-17T19:12:18;100853.03;;;22.15;55.32
64343;BME280;50675;53.530;-6.312;2023-08-17T19:14:45;100854.66;;;22.07;55.51
64343;BME280;50675;53.530;-6.312;2023-08-17T19:17:11;100831.06;;;21.75;55.39
64343;BME280;50675;53.530;-6.312;2023-08-17T19:20:09;100852.13;;;21.80;55.45
64343;BME280;50675;53.530;-6.312;2023-08-17T19:22:36;100842.56;;;21.86;55.68
64343;BME280;50675;53.530;-6.312;2023-08-17T19:25:03;100848.56;;;21.79;55.60
64343;BME280;50675;53.530;-6.312;2023-08-17T19:27:29;100855.00;;;21.75;55.56
64343;BME280;50675;53.530;-6.312;2023-08-17T19:29:55;100860.63;;;21.61;55.79
64343;BME280;50675;53.530;-6.312;2023-08-17T19:32:21;100849.13;;;21.68;55.83
64343;BME280;50675;53.530;-6.312;2023-08-17T19:34:47;100844.97;;;21.70;56.04
64343;BME280;50675;53.530;-6.312;2023-08-17T19:37:13;100842.50;;;21.60;55.75
64343;BME280;50675;53.530;-6.312;2023-08-17T19:39:39;100857.72;;;21.66;56.19
64343;BME280;50675;53.530;-6.312;2023-08-17T19:42:05;100845.72;;;21.62;55.88
64343;BME280;50675;53.530;-6.312;2023-08-17T19:44:31;100852.94;;;21.50;55.85
64343;BME280;50675;53.530;-6.312;2023-08-17T19:46:57;100846.47;;;21.46;55.83
64343;BME280;50675;53.530;-6.312;2023-08-17T19:49:26;100851.19;;;21.54;56.22
64343;BME280;50675;53.530;-6.312;2023-08-17T19:51:53;100843.03;;;21.40;56.21
64343;BME280;50675;53.530;-6.312;2023-08-17T19:54:19;100872.06;;;21.55;56.27
64343;BME280;50675;53.530;-6.312;2023-08-17T22:15:12;100784.06;;;20.62;58.65
64343;BME280;50675;53.530;-6.312;2023-08-17T22:17:38;100772.34;;;20.48;58.42
64343;BME280;50675;53.530;-6.312;2023-08-17T22:23:49;100781.00;;;20.28;58.90
64343;BME280;50675;53.530;-6.312;2023-08-17T22:30:14;100785.34;;;20.42;58.70
64343;BME280;50675;53.530;-6.312;2023-08-17T22:33:11;100808.31;;;20.46;58.81
64343;BME280;50675;53.530;-6.312;2023-08-17T22:39:21;100792.03;;;20.50;58.80
64343;BME280;50675;53.530;-6.312;2023-08-17T22:41:47;100779.34;;;20.40;59.12
64343;BME280;50675;53.530;-6.312;2023-08-17T22:44:39;100788.53;;;20.58;58.86
64343;BME280;50675;53.530;-6.312;2023-08-17T22:47:33;100788.91;;;20.65;59.30